sensor_id;sensor_type;location;lat;lon;timestamp;pressure;altitude;pressure_sealevel;temperature;humidity
22662;BME280;11497;52.222;21.246;2023-02-10T00:01:36;101856.31;;;-1.27;61.02
22662;BME280;11497;52.222;21.246;2023-02-10T00:04:05;101850.25;;;-1.29;61.08
22662;BME280;11497;52.222;21.246;2023-02-10T00:06:33;101849.22;;;-1.34;61.63
22662;BME280;11497;52.222;21.246;2023-02-10T00:09:02;101848.16;;;-1.39;61.70
22662;BME280;11497;52.222;21.246;2023-02-10T00:11:30;101844.19;;;-1.31;61.91
22662;BME280;11497;52.222;21.246;2023-02-10T00:14:18;101837.03;;;-1.16;61.23
22662;BME280;11497;52.222;21.246;2023-02-10T00:16:50;101838.56;;;-1.21;61.13
22662;BME280;11497;52.222;21.246;2023-02-10T00:19:19;101833.53;;;-1.18;61.59
22662;BME280;11497;52.222;21.246;2023-02-10T00:21:48;101823.03;;;-1.24;61.59
22662;BME280;11497;52.222;21.246;2023-02-10T00:24:16;101829.41;;;-1.14;61.68
22662;BME280;11497;52.222;21.246;2023-02-10T00:26:44;101818.00;;;-1.21;61.83
22662;BME280;11497;52.222;21.246;2023-02-10T00:29:11;101820.97;;;-1.34;61.97
22662;BME280;11497;52.222;21.246;2023-02-10T00:31:40;101824.03;;;-1.20;61.50
22662;BME280;11497;52.222;21.246;2023-02-10T00:34:13;101832.59;;;-1.20;61.49
22662;BME280;11497;52.222;21.246;2023-02-10T00:36:41;101832.50;;;-1.45;61.96
22662;BME280;11497;52.222;21.246;2023-02-10T00:39:16;101836.13;;;-1.40;62.20
22662;BME280;11497;52.222;21.246;2023-02-10T00:41:44;101827.03;;;-1.54;62.64
22662;BME280;11497;52.222;21.246;2023-02-10T00:44:11;101825.28;;;-1.55;62.47
22662;BME280;11497;52.222;21.246;2023-02-10T00:46:39;101820.78;;;-1.61;63.10
22662;BME280;11497;52.222;21.246;2023-02-10T00:49:08;101815.13;;;-1.52;63.30
22662;BME280;11497;52.222;21.246;2023-02-10T00:51:37;101813.13;;;-1.59;62.90
22662;BME280;11497;52.222;21.246;2023-02-10T00:54:04;101812.19;;;-1.61;63.28
22662;BME280;11497;52.222;21.246;2023-02-10T00:56:32;101802.16;;;-1.78;63.82
22662;BME280;11497;52.222;21.246;2023-02-10T00:59:00;101808.69;;;-1.86;63.77
22662;BME280;11497;52.222;21.246;2023-02-10T01:01:28;101806.13;;;-1.86;63.92
22662;BME280;11497;52.222;21.246;2023-02-10T01:03:55;101806.81;;;-1.90;64.04
22662;BME280;11497;52.222;21.246;2023-02-10T01:06:23;101809.81;;;-2.00;64.63
22662;BME280;11497;52.222;21.246;2023-02-10T01:08:51;101801.19;;;-2.02;64.33
22662;BME280;11497;52.222;21.246;2023-02-10T01:11:19;101815.78;;;-2.22;65.23
22662;BME280;11497;52.222;21.246;2023-02-10T01:13:47;101818.03;;;-2.29;65.25
22662;BME280;11497;52.222;21.246;2023-02-10T01:16:16;101817.47;;;-2.22;66.04
22662;BME280;11497;52.222;21.246;2023-02-10T01:18:44;101815.53;;;-2.28;66.40
22662;BME280;11497;52.222;21.246;2023-02-10T01:21:15;101812.47;;;-2.19;66.09
22662;BME280;11497;52.222;21.246;2023-02-10T01:23:44;101811.97;;;-2.31;66.15
22662;BME280;11497;52.222;21.246;2023-02-10T01:26:13;101805.47;;;-2.23;66.66
22662;BME280;11497;52.222;21.246;2023-02-10T01:28:41;101812.31;;;-2.43;66.52
22662;BME280;11497;52.222;21.246;2023-02-10T01:31:17;101811.03;;;-2.53;67.02
22662;BME280;11497;52.222;21.246;2023-02-10T01:33:46;101810.56;;;-2.65;67.63
22662;BME280;11497;52.222;21.246;2023-02-10T01:36:16;101808.78;;;-2.66;67.54
22662;BME280;11497;52.222;21.246;2023-02-10T01:38:45;101810.03;;;-2.77;68.16
22662;BME280;11497;52.222;21.246;2023-02-10T01:41:15;101808.00;;;-2.84;68.01
22662;BME280;11497;52.222;21.246;2023-02-10T01:44:03;101802.41;;;-2.76;68.77
22662;BME280;11497;52.222;21.246;2023-02-10T01:46:33;101803.34;;;-2.93;68.82
22662;BME280;11497;52.222;21.246;2023-02-10T01:49:07;101801.38;;;-2.98;69.36
22662;BME280;11497;52.222;21.246;2023-02-10T01:52:04;101807.19;;;-3.03;70.00
22662;BME280;11497;52.222;21.246;2023-02-10T01:54:47;101808.66;;;-2.88;70.07
22662;BME280;11497;52.222;21.246;2023-02-10T01:57:17;101803.00;;;-3.01;70.09
22662;BME280;11497;52.222;21.246;2023-02-10T01:59:45;101796.81;;;-3.06;70.28
22662;BME280;11497;52.222;21.246;2023-02-10T02:02:14;101802.28;;;-3.17;70.57
22662;BME280;11497;52.222;21.246;2023-02-10T02:04:50;101799.50;;;-3.22;71.08
22662;BME280;11497;52.222;21.246;2023-02-10T02:07:23;101799.97;;;-3.30;71.11
22662;BME280;11497;52.222;21.246;2023-02-10T02:09:55;101798.63;;;-3.22;71.48
22662;BME280;11497;52.222;21.246;2023-02-10T02:18:20;101795.47;;;-3.17;71.86
22662;BME280;11497;52.222;21.246;2023-02-10T02:21:21;101795.06;;;-3.07;71.79
22662;BME280;11497;52.222;21.246;2023-02-10T02:34:52;101789.25;;;-3.22;72.87
22662;BME280;11497;52.222;21.246;2023-02-10T02:37:30;101801.00;;;-3.45;73.14
22662;BME280;11497;52.222;21.246;2023-02-10T02:39:59;101800.56;;;-3.55;73.50
22662;BME280;11497;52.222;21.246;2023-02-10T02:42:29;101795.72;;;-3.49;73.47
22662;BME280;11497;52.222;21.246;2023-02-10T02:45:20;101791.19;;;-3.55;73.99
22662;BME280;11497;52.222;21.246;2023-02-10T02:50:43;101782.63;;;-3.55;74.31
22662;BME280;11497;52.222;21.246;2023-02-10T03:01:48;101780.69;;;-3.42;74.77
22662;BME280;11497;52.222;21.246;2023-02-10T03:04:21;101779.13;;;-3.57;74.95
22662;BME280;11497;52.222;21.246;2023-02-10T03:06:49;101781.56;;;-3.41;74.90
22662;BME280;11497;52.222;21.246;2023-02-10T03:09:17;101777.38;;;-3.39;74.79
22662;BME280;11497;52.222;21.246;2023-02-10T03:11:45;101760.53;;;-3.34;75.16
22662;BME280;11497;52.222;21.246;2023-02-10T03:14:12;101778.06;;;-3.24;75.02
22662;BME280;11497;52.222;21.246;2023-02-10T03:16:40;101783.97;;;-3.07;75.20
22662;BME280;11497;52.222;21.246;2023-02-10T03:19:08;101782.78;;;-2.94;75.31
22662;BME280;11497;52.222;21.246;2023-02-10T03:21:36;101786.28;;;-2.73;74.67
22662;BME280;11497;52.222;21.246;2023-02-10T03:24:04;101782.03;;;-2.73;74.42
22662;BME280;11497;52.222;21.246;2023-02-10T03:26:32;101771.53;;;-2.58;73.73
22662;BME280;11497;52.222;21.246;2023-02-10T03:28:59;101769.16;;;-2.53;73.81
22662;BME280;11497;52.222;21.246;2023-02-10T03:31:27;101762.94;;;-2.60;73.48
22662;BME280;11497;52.222;21.246;2023-02-10T03:33:55;101753.78;;;-2.53;73.01
22662;BME280;11497;52.222;21.246;2023-02-10T03:36:23;101766.03;;;-2.67;73.02
22662;BME280;11497;52.222;21.246;2023-02-10T03:38:50;101754.66;;;-2.74;73.15
22662;BME280;11497;52.222;21.246;2023-02-10T03:41:18;101754.88;;;-2.88;73.13
22662;BME280;11497;52.222;21.246;2023-02-10T03:43:46;101762.81;;;-2.63;73.01
22662;BME280;11497;52.222;21.246;2023-02-10T03:46:13;101765.78;;;-2.92;72.89
22662;BME280;11497;52.222;21.246;2023-02-10T03:48:41;101760.25;;;-2.82;73.43
22662;BME280;11497;52.222;21.246;2023-02-10T03:51:13;101756.34;;;-2.93;73.39
22662;BME280;11497;52.222;21.246;2023-02-10T03:53:42;101756.31;;;-3.14;73.64
22662;BME280;11497;52.222;21.246;2023-02-10T03:56:11;101756.91;;;-3.20;73.78
22662;BME280;11497;52.222;21.246;2023-02-10T03:58:39;101755.44;;;-3.15;73.90
22662;BME280;11497;52.222;21.246;2023-02-10T04:01:11;101749.63;;;-3.30;73.92
22662;BME280;11497;52.222;21.246;2023-02-10T04:03:39;101755.31;;;-3.18;74.40
22662;BME280;11497;52.222;21.246;2023-02-10T04:06:08;101756.25;;;-3.35;74.40
22662;BME280;11497;52.222;21.246;2023-02-10T04:08:37;101764.66;;;-3.57;74.74
22662;BME280;11497;52.222;21.246;2023-02-10T04:11:05;101769.75;;;-3.57;75.31
22662;BME280;11497;52.222;21.246;2023-02-10T04:13:36;101775.19;;;-3.69;75.22
22662;BME280;11497;52.222;21.246;2023-02-10T04:16:06;101771.03;;;-3.66;75.54
22662;BME280;11497;52.222;21.246;2023-02-10T04:18:35;101765.09;;;-3.65;75.60
22662;BME280;11497;52.222;21.246;2023-02-10T04:21:04;101757.72;;;-3.59;76.13
22662;BME280;11497;52.222;21.246;2023-02-10T04:23:32;101765.38;;;-3.59;76.45
22662;BME280;11497;52.222;21.246;2023-02-10T04:26:00;101758.72;;;-3.56;76.56
22662;BME280;11497;52.222;21.246;2023-02-10T04:28:28;101768.59;;;-3.63;76.53
22662;BME280;11497;52.222;21.246;2023-02-10T04:30:58;101780.16;;;-3.72;76.78
22662;BME280;11497;52.222;21.246;2023-02-10T04:33:27;101781.34;;;-3.83;76.87
22662;BME280;11497;52.222;21.246;2023-02-10T04:35:55;101774.31;;;-3.87;77.00
22662;BME280;11497;52.222;21.246;2023-02-10T04:38:24;101781.03;;;-3.89;77.42
22662;BME280;11497;52.222;21.246;2023-02-10T04:40:52;101780.94;;;-3.92;77.50
22662;BME280;11497;52.222;21.246;2023-02-10T04:43:20;101785.03;;;-3.95;77.77
22662;BME280;11497;52.222;21.246;2023-02-10T04:45:50;101775.28;;;-3.85;78.05
22662;BME280;11497;52.222;21.246;2023-02-10T04:48:18;101768.69;;;-3.80;78.47
22662;BME280;11497;52.222;21.246;2023-02-10T04:50:48;101763.44;;;-3.83;78.42
22662;BME280;11497;52.222;21.246;2023-02-10T04:53:17;101764.22;;;-3.84;78.80
22662;BME280;11497;52.222;21.246;2023-02-10T04:55:44;101761.31;;;-3.74;78.67
22662;BME280;11497;52.222;21.246;2023-02-10T04:58:13;101758.09;;;-3.70;78.56
22662;BME280;11497;52.222;21.246;2023-02-10T05:00:40;101747.25;;;-3.64;78.71
22662;BME280;11497;52.222;21.246;2023-02-10T05:03:08;101745.72;;;-3.41;78.38
22662;BME280;11497;52.222;21.246;2023-02-10T05:05:36;101738.59;;;-3.29;78.32
22662;BME280;11497;52.222;21.246;2023-02-10T05:08:04;101736.44;;;-3.20;78.06
22662;BME280;11497;52.222;21.246;2023-02-10T05:10:31;101742.47;;;-2.98;77.91
22662;BME280;11497;52.222;21.246;2023-02-10T05:12:59;101741.84;;;-2.53;77.27
22662;BME280;11497;52.222;21.246;2023-02-10T05:15:27;101749.72;;;-2.27;76.66
22662;BME280;11497;52.222;21.246;2023-02-10T05:17:55;101739.25;;;-2.11;75.96
22662;BME280;11497;52.222;21.246;2023-02-10T05:20:22;101736.19;;;-1.80;75.54
22662;BME280;11497;52.222;21.246;2023-02-10T05:22:50;101747.94;;;-1.41;74.14
22662;BME280;11497;52.222;21.246;2023-02-10T05:25:18;101733.84;;;-1.28;73.17
22662;BME280;11497;52.222;21.246;2023-02-10T05:27:46;101728.97;;;-1.20;71.77
22662;BME280;11497;52.222;21.246;2023-02-10T05:30:14;101725.66;;;-1.18;71.13
22662;BME280;11497;52.222;21.246;2023-02-10T05:32:42;101726.63;;;-1.14;70.67
22662;BME280;11497;52.222;21.246;2023-02-10T05:35:10;101726.09;;;-1.06;70.26
22662;BME280;11497;52.222;21.246;2023-02-10T05:37:38;101723.25;;;-0.89;70.04
22662;BME280;11497;52.222;21.246;2023-02-10T05:40:08;101727.69;;;-0.84;69.11
22662;BME280;11497;52.222;21.246;2023-02-10T05:42:36;101714.88;;;-0.82;68.64
22662;BME280;11497;52.222;21.246;2023-02-10T05:45:04;101715.19;;;-0.73;68.07
22662;BME280;11497;52.222;21.246;2023-02-10T05:47:32;101727.38;;;-0.68;68.04
22662;BME280;11497;52.222;21.246;2023-02-10T05:49:59;101747.81;;;-0.47;67.40
22662;BME280;11497;52.222;21.246;2023-02-10T05:52:27;101752.91;;;-0.48;67.40
22662;BME280;11497;52.222;21.246;2023-02-10T05:54:55;101752.19;;;-0.44;67.11
22662;BME280;11497;52.222;21.246;2023-02-10T05:57:23;101746.94;;;-0.47;67.12
22662;BME280;11497;52.222;21.246;2023-02-10T05:59:50;101753.22;;;-0.38;66.49
22662;BME280;11497;52.222;21.246;2023-02-10T06:02:19;101754.16;;;-0.36;66.19
22662;BME280;11497;52.222;21.246;2023-02-10T06:04:46;101747.38;;;-0.34;66.28
22662;BME280;11497;52.222;21.246;2023-02-10T06:07:14;101746.88;;;0.05;66.14
22662;BME280;11497;52.222;21.246;2023-02-10T06:09:44;101748.03;;;0.15;65.42
22662;BME280;11497;52.222;21.246;2023-02-10T06:12:14;101743.66;;;0.12;64.87
22662;BME280;11497;52.222;21.246;2023-02-10T06:14:41;101756.91;;;-0.04;64.88
22662;BME280;11497;52.222;21.246;2023-02-10T06:17:10;101762.50;;;0.11;64.88
22662;BME280;11497;52.222;21.246;2023-02-10T06:19:39;101760.88;;;0.13;65.06
22662;BME280;11497;52.222;21.246;2023-02-10T06:22:08;101759.44;;;0.23;64.62
22662;BME280;11497;52.222;21.246;2023-02-10T06:24:36;101764.47;;;0.18;64.61
22662;BME280;11497;52.222;21.246;2023-02-10T06:27:05;101774.84;;;0.21;64.50
22662;BME280;11497;52.222;21.246;2023-02-10T06:29:32;101764.00;;;0.31;64.77
22662;BME280;11497;52.222;21.246;2023-02-10T06:32:00;101761.16;;;0.22;64.44
22662;BME280;11497;52.222;21.246;2023-02-10T06:34:28;101772.78;;;0.38;64.92
22662;BME280;11497;52.222;21.246;2023-02-10T06:36:56;101771.84;;;0.35;64.97
22662;BME280;11497;52.222;21.246;2023-02-10T06:39:23;101757.94;;;0.29;65.22
22662;BME280;11497;52.222;21.246;2023-02-10T06:41:52;101761.03;;;0.48;65.21
22662;BME280;11497;52.222;21.246;2023-02-10T06:44:19;101770.38;;;0.43;65.20
22662;BME280;11497;52.222;21.246;2023-02-10T06:46:47;101782.75;;;0.56;65.21
22662;BME280;11497;52.222;21.246;2023-02-10T06:49:15;101788.91;;;0.61;65.13
22662;BME280;11497;52.222;21.246;2023-02-10T06:51:43;101785.47;;;0.60;64.87
22662;BME280;11497;52.222;21.246;2023-02-10T06:54:10;101789.25;;;0.72;64.65
22662;BME280;11497;52.222;21.246;2023-02-10T06:56:38;101791.03;;;0.74;64.96
22662;BME280;11497;52.222;21.246;2023-02-10T06:59:06;101790.03;;;0.69;64.59
22662;BME280;11497;52.222;21.246;2023-02-10T07:01:35;101788.81;;;0.86;64.39
22662;BME280;11497;52.222;21.246;2023-02-10T07:04:02;101788.72;;;0.83;64.03
22662;BME280;11497;52.222;21.246;2023-02-10T07:06:30;101768.63;;;1.03;64.00
22662;BME280;11497;52.222;21.246;2023-02-10T07:08:58;101765.19;;;1.03;63.38
22662;BME280;11497;52.222;21.246;2023-02-10T07:11:26;101773.78;;;1.03;63.09
22662;BME280;11497;52.222;21.246;2023-02-10T07:13:53;101769.09;;;1.20;63.01
22662;BME280;11497;52.222;21.246;2023-02-10T07:16:21;101772.97;;;1.37;62.78
22662;BME280;11497;52.222;21.246;2023-02-10T07:18:49;101762.81;;;1.43;62.16
22662;BME280;11497;52.222;21.246;2023-02-10T07:21:17;101766.25;;;1.42;62.11
22662;BME280;11497;52.222;21.246;2023-02-10T07:23:44;101767.78;;;1.69;61.47
22662;BME280;11497;52.222;21.246;2023-02-10T07:26:12;101769.38;;;1.63;61.34
22662;BME280;11497;52.222;21.246;2023-02-10T07:28:40;101769.41;;;1.65;60.71
22662;BME280;11497;52.222;21.246;2023-02-10T07:31:08;101779.38;;;1.86;60.74
22662;BME280;11497;52.222;21.246;2023-02-10T07:33:36;101790.53;;;1.85;60.61
22662;BME280;11497;52.222;21.246;2023-02-10T07:36:06;101797.59;;;1.92;60.52
22662;BME280;11497;52.222;21.246;2023-02-10T07:38:34;101790.81;;;1.95;60.22
22662;BME280;11497;52.222;21.246;2023-02-10T07:41:03;101788.03;;;2.24;60.02
22662;BME280;11497;52.222;21.246;2023-02-10T07:43:31;101786.94;;;2.52;59.47
22662;BME280;11497;52.222;21.246;2023-02-10T07:46:04;101784.56;;;2.62;59.18
22662;BME280;11497;52.222;21.246;2023-02-10T07:48:32;101784.09;;;2.80;58.77
22662;BME280;11497;52.222;21.246;2023-02-10T07:51:00;101778.28;;;2.92;58.05
22662;BME280;11497;52.222;21.246;2023-02-10T07:53:27;101786.44;;;3.12;57.38
22662;BME280;11497;52.222;21.246;2023-02-10T07:55:58;101781.25;;;3.12;57.31
22662;BME280;11497;52.222;21.246;2023-02-10T07:58:26;101787.44;;;3.20;57.13
22662;BME280;11497;52.222;21.246;2023-02-10T08:00:54;101781.41;;;3.19;57.01
22662;BME280;11497;52.222;21.246;2023-02-10T08:03:22;101783.31;;;3.28;56.88
22662;BME280;11497;52.222;21.246;2023-02-10T08:05:50;101780.72;;;3.28;56.67
22662;BME280;11497;52.222;21.246;2023-02-10T08:08:17;101776.63;;;3.39;56.87
22662;BME280;11497;52.222;21.246;2023-02-10T08:10:45;101785.25;;;3.40;57.05
22662;BME280;11497;52.222;21.246;2023-02-10T08:13:13;101776.06;;;3.58;57.09
22662;BME280;11497;52.222;21.246;2023-02-10T08:15:41;101779.78;;;3.73;56.98
22662;BME280;11497;52.222;21.246;2023-02-10T08:18:09;101771.16;;;3.74;56.57
22662;BME280;11497;52.222;21.246;2023-02-10T08:20:37;101759.72;;;3.61;56.29
22662;BME280;11497;52.222;21.246;2023-02-10T08:23:05;101779.50;;;4.10;56.60
22662;BME280;11497;52.222;21.246;2023-02-10T08:25:33;101771.94;;;4.24;55.71
22662;BME280;11497;52.222;21.246;2023-02-10T08:28:01;101777.47;;;4.50;55.75
22662;BME280;11497;52.222;21.246;2023-02-10T08:30:29;101773.97;;;5.16;54.69
22662;BME280;11497;52.222;21.246;2023-02-10T08:32:57;101772.22;;;5.12;53.91
22662;BME280;11497;52.222;21.246;2023-02-10T08:35:25;101780.47;;;4.80;53.83
22662;BME280;11497;52.222;21.246;2023-02-10T08:37:53;101763.41;;;4.29;53.96
22662;BME280;11497;52.222;21.246;2023-02-10T08:40:21;101778.47;;;3.99;55.13
22662;BME280;11497;52.222;21.246;2023-02-10T08:42:49;101776.72;;;3.98;55.42
22662;BME280;11497;52.222;21.246;2023-02-10T08:45:16;101769.31;;;3.66;55.59
22662;BME280;11497;52.222;21.246;2023-02-10T08:47:44;101774.50;;;3.66;56.34
22662;BME280;11497;52.222;21.246;2023-02-10T08:50:12;101773.06;;;3.84;56.78
22662;BME280;11497;52.222;21.246;2023-02-10T08:52:40;101786.44;;;3.60;56.81
22662;BME280;11497;52.222;21.246;2023-02-10T08:55:08;101789.78;;;3.53;57.13
22662;BME280;11497;52.222;21.246;2023-02-10T08:57:38;101795.03;;;3.57;57.79
22662;BME280;11497;52.222;21.246;2023-02-10T09:00:07;101797.47;;;3.50;57.97
22662;BME280;11497;52.222;21.246;2023-02-10T09:02:35;101802.47;;;3.38;58.43
22662;BME280;11497;52.222;21.246;2023-02-10T09:05:04;101804.66;;;3.18;58.72
22662;BME280;11497;52.222;21.246;2023-02-10T09:07:37;101807.75;;;2.98;58.96
22662;BME280;11497;52.222;21.246;2023-02-10T09:10:06;101817.22;;;2.98;59.75
22662;BME280;11497;52.222;21.246;2023-02-10T09:12:38;101817.56;;;2.74;60.13
22662;BME280;11497;52.222;21.246;2023-02-10T09:15:06;101826.22;;;2.76;60.64
22662;BME280;11497;52.222;21.246;2023-02-10T09:17:34;101822.72;;;2.74;61.48
22662;BME280;11497;52.222;21.246;2023-02-10T09:20:02;101834.88;;;2.78;61.60
22662;BME280;11497;52.222;21.246;2023-02-10T09:22:31;101833.22;;;2.80;61.86
22662;BME280;11497;52.222;21.246;2023-02-10T09:24:58;101839.06;;;2.72;61.93
22662;BME280;11497;52.222;21.246;2023-02-10T09:27:26;101836.41;;;2.68;62.44
22662;BME280;11497;52.222;21.246;2023-02-10T09:29:54;101836.38;;;2.67;62.52
22662;BME280;11497;52.222;21.246;2023-02-10T09:32:22;101823.59;;;2.75;62.76
22662;BME280;11497;52.222;21.246;2023-02-10T09:34:50;101828.91;;;2.81;62.70
22662;BME280;11497;52.222;21.246;2023-02-10T09:37:17;101835.66;;;3.15;62.36
22662;BME280;11497;52.222;21.246;2023-02-10T09:39:46;101840.47;;;3.40;62.50
22662;BME280;11497;52.222;21.246;2023-02-10T09:42:30;101846.53;;;3.42;61.88
22662;BME280;11497;52.222;21.246;2023-02-10T09:45:11;101855.88;;;3.34;61.50
22662;BME280;11497;52.222;21.246;2023-02-10T09:53:29;101846.44;;;3.36;61.60
22662;BME280;11497;52.222;21.246;2023-02-10T09:56:05;101850.69;;;3.34;61.39
22662;BME280;11497;52.222;21.246;2023-02-10T09:58:42;101834.84;;;3.17;62.05
22662;BME280;11497;52.222;21.246;2023-02-10T10:04:02;101839.44;;;3.32;62.00
22662;BME280;11497;52.222;21.246;2023-02-10T10:11:37;101830.78;;;3.30;62.10
22662;BME280;11497;52.222;21.246;2023-02-10T10:31:30;101834.03;;;3.20;63.20
22662;BME280;11497;52.222;21.246;2023-02-10T10:34:17;101842.69;;;3.22;63.07
22662;BME280;11497;52.222;21.246;2023-02-10T10:36:48;101839.72;;;3.02;63.26
22662;BME280;11497;52.222;21.246;2023-02-10T10:39:34;101831.22;;;3.09;63.67
22662;BME280;11497;52.222;21.246;2023-02-10T10:42:23;101826.22;;;3.18;63.65
22662;BME280;11497;52.222;21.246;2023-02-10T10:44:59;101835.50;;;3.09;63.95
22662;BME280;11497;52.222;21.246;2023-02-10T10:47:39;101831.78;;;2.94;64.03
22662;BME280;11497;52.222;21.246;2023-02-10T10:50:16;101831.94;;;3.00;64.32
22662;BME280;11497;52.222;21.246;2023-02-10T10:52:45;101842.13;;;2.94;64.61
22662;BME280;11497;52.222;21.246;2023-02-10T10:55:27;101836.06;;;2.92;64.57
22662;BME280;11497;52.222;21.246;2023-02-10T10:57:58;101844.66;;;2.91;65.23
22662;BME280;11497;52.222;21.246;2023-02-10T11:00:28;101840.94;;;2.79;65.41
22662;BME280;11497;52.222;21.246;2023-02-10T11:03:04;101842.69;;;2.80;65.76
22662;BME280;11497;52.222;21.246;2023-02-10T11:05:35;101836.38;;;2.67;66.18
22662;BME280;11497;52.222;21.246;2023-02-10T11:08:07;101836.75;;;2.45;66.76
22662;BME280;11497;52.222;21.246;2023-02-10T11:10:55;101829.13;;;2.51;67.32
22662;BME280;11497;52.222;21.246;2023-02-10T11:13:28;101825.63;;;2.49;67.83
22662;BME280;11497;52.222;21.246;2023-02-10T11:16:10;101834.84;;;2.38;68.24
22662;BME280;11497;52.222;21.246;2023-02-10T11:18:55;101834.69;;;2.69;68.41
22662;BME280;11497;52.222;21.246;2023-02-10T11:21:38;101832.44;;;2.84;68.07
22662;BME280;11497;52.222;21.246;2023-02-10T11:24:20;101838.59;;;2.89;68.06
22662;BME280;11497;52.222;21.246;2023-02-10T11:26:56;101840.13;;;2.81;68.26
22662;BME280;11497;52.222;21.246;2023-02-10T11:29:24;101842.06;;;2.91;67.98
22662;BME280;11497;52.222;21.246;2023-02-10T11:31:53;101837.84;;;2.95;68.28
22662;BME280;11497;52.222;21.246;2023-02-10T11:36:57;101846.06;;;3.18;67.97
22662;BME280;11497;52.222;21.246;2023-02-10T11:39:35;101844.38;;;3.20;68.24
22662;BME280;11497;52.222;21.246;2023-02-10T11:42:16;101850.81;;;3.40;67.64
22662;BME280;11497;52.222;21.246;2023-02-10T11:47:30;101856.69;;;3.78;66.88
22662;BME280;11497;52.222;21.246;2023-02-10T11:49:58;101859.88;;;4.13;66.47
22662;BME280;11497;52.222;21.246;2023-02-10T11:52:29;101860.13;;;4.28;65.89
22662;BME280;11497;52.222;21.246;2023-02-10T11:54:57;101861.31;;;4.50;65.27
22662;BME280;11497;52.222;21.246;2023-02-10T11:58:18;101863.69;;;4.37;64.62
22662;BME280;11497;52.222;21.246;2023-02-10T12:00:54;101855.63;;;4.17;65.11
22662;BME280;11497;52.222;21.246;2023-02-10T12:03:46;101866.41;;;3.91;65.10
22662;BME280;11497;52.222;21.246;2023-02-10T12:06:36;101874.81;;;3.77;65.65
22662;BME280;11497;52.222;21.246;2023-02-10T12:12:04;101871.31;;;3.75;66.44
22662;BME280;11497;52.222;21.246;2023-02-10T12:14:49;101868.72;;;3.75;66.69
22662;BME280;11497;52.222;21.246;2023-02-10T12:17:31;101850.09;;;3.97;66.77
22662;BME280;11497;52.222;21.246;2023-02-10T12:28:15;101861.25;;;3.93;66.32
22662;BME280;11497;52.222;21.246;2023-02-10T12:31:16;101852.84;;;4.06;66.87
22662;BME280;11497;52.222;21.246;2023-02-10T12:34:15;101853.09;;;4.21;66.82
22662;BME280;11497;52.222;21.246;2023-02-10T12:36:52;101853.00;;;4.15;66.19
22662;BME280;11497;52.222;21.246;2023-02-10T12:48:11;101858.13;;;4.12;67.12
22662;BME280;11497;52.222;21.246;2023-02-10T12:53:19;101859.66;;;4.01;67.02
22662;BME280;11497;52.222;21.246;2023-02-10T12:58:36;101869.34;;;3.63;67.68
22662;BME280;11497;52.222;21.246;2023-02-10T13:01:29;101874.13;;;3.40;68.59
22662;BME280;11497;52.222;21.246;2023-02-10T13:04:36;101878.53;;;3.46;69.26
22662;BME280;11497;52.222;21.246;2023-02-10T13:07:20;101880.38;;;3.53;69.50
22662;BME280;11497;52.222;21.246;2023-02-10T13:09:57;101880.13;;;3.39;69.73
22662;BME280;11497;52.222;21.246;2023-02-10T13:12:39;101890.16;;;3.67;69.45
22662;BME280;11497;52.222;21.246;2023-02-10T13:15:19;101873.47;;;3.53;69.49
22662;BME280;11497;52.222;21.246;2023-02-10T13:17:50;101877.47;;;3.36;69.90
22662;BME280;11497;52.222;21.246;2023-02-10T13:20:40;101874.13;;;3.40;70.12
22662;BME280;11497;52.222;21.246;2023-02-10T13:23:28;101874.28;;;3.49;70.09
22662;BME280;11497;52.222;21.246;2023-02-10T13:29:19;101874.97;;;3.39;70.59
22662;BME280;11497;52.222;21.246;2023-02-10T13:34:28;101884.34;;;3.34;71.19
22662;BME280;11497;52.222;21.246;2023-02-10T13:37:03;101872.31;;;3.36;70.83
22662;BME280;11497;52.222;21.246;2023-02-10T13:39:33;101882.22;;;3.15;71.64
22662;BME280;11497;52.222;21.246;2023-02-10T13:42:25;101880.47;;;3.14;71.29
22662;BME280;11497;52.222;21.246;2023-02-10T13:45:24;101882.28;;;3.18;71.96
22662;BME280;11497;52.222;21.246;2023-02-10T13:47:58;101882.03;;;3.07;72.44
22662;BME280;11497;52.222;21.246;2023-02-10T13:50:51;101883.09;;;3.15;72.49
22662;BME280;11497;52.222;21.246;2023-02-10T13:56:12;101882.13;;;3.10;72.55
22662;BME280;11497;52.222;21.246;2023-02-10T13:59:01;101891.03;;;3.24;72.49
22662;BME280;11497;52.222;21.246;2023-02-10T14:01:41;101895.31;;;3.22;73.13
22662;BME280;11497;52.222;21.246;2023-02-10T14:06:52;101905.25;;;3.03;73.06
22662;BME280;11497;52.222;21.246;2023-02-10T14:12:01;101905.97;;;2.95;74.09
22662;BME280;11497;52.222;21.246;2023-02-10T14:17:23;101917.97;;;2.93;73.80
22662;BME280;11497;52.222;21.246;2023-02-10T14:19:58;101911.91;;;2.91;73.76
22662;BME280;11497;52.222;21.246;2023-02-10T14:22:34;101916.06;;;2.85;74.39
22662;BME280;11497;52.222;21.246;2023-02-10T14:25:30;101927.13;;;2.79;74.47
22662;BME280;11497;52.222;21.246;2023-02-10T14:28:00;101935.13;;;2.90;74.45
22662;BME280;11497;52.222;21.246;2023-02-10T14:30:40;101944.03;;;2.65;74.87
22662;BME280;11497;52.222;21.246;2023-02-10T14:33:20;101942.19;;;2.59;75.47
22662;BME280;11497;52.222;21.246;2023-02-10T14:35:50;101942.53;;;2.75;75.69
22662;BME280;11497;52.222;21.246;2023-02-10T14:38:27;101946.69;;;2.68;75.46
22662;BME280;11497;52.222;21.246;2023-02-10T14:40:57;101957.25;;;2.77;75.34
22662;BME280;11497;52.222;21.246;2023-02-10T14:43:34;101953.69;;;2.72;75.65
22662;BME280;11497;52.222;21.246;2023-02-10T14:46:03;101949.31;;;2.70;75.84
22662;BME280;11497;52.222;21.246;2023-02-10T14:48:31;101940.94;;;2.80;75.88
22662;BME280;11497;52.222;21.246;2023-02-10T14:51:16;101949.34;;;2.71;76.23
22662;BME280;11497;52.222;21.246;2023-02-10T14:53:45;101934.19;;;2.49;76.22
22662;BME280;11497;52.222;21.246;2023-02-10T14:56:20;101955.00;;;2.55;76.29